Terminal Aerodrome Forecast
Issued by NWS

Home | Current Version | Previous Version | Text Only | Print | Product List | Glossary On
Versions: 1 2 3 4 5 6 7 8 9 10 11 12 13 14 15 16 17 18 19 20
000
FTUS43 KLSX 011700
TAFUIN
TAF
KUIN 011722Z 0118/0218 30007KT P6SM OVC015
     FM020200 30007KT P6SM SCT020 BKN150
     FM021500 04005KT P6SM SCT015=

USA.gov is the U.S. government's official web portal to all federal, state and local government web resources and services.